Time;durP1;ratioP1;P1;durP2;ratioP2;P2;SDS_P1;SDS_P2;PMS_P1;PMS_P2;Temp;Humidity;BMP_temperature;BMP_pressure;BME280_temperature;BME280_humidity;BME280_pressure;Samples;Min_cycle;Max_cycle;Signal;HPM_P1;HPM_P2
2023/02/05 00:00:44;;;;;;;19.77;14.50;;;9.30;99.90;;;;;;5096518;28;20636;-75
2023/02/05 00:03:11;;;;;;;18.03;14.20;;;9.30;99.90;;;;;;5096828;28;20201;-75
2023/02/05 00:05:38;;;;;;;22.93;13.73;;;9.30;99.90;;;;;;5096273;28;20562;-77
2023/02/05 00:08:05;;;;;;;19.13;13.17;;;9.30;99.90;;;;;;5096379;28;20233;-77
2023/02/05 00:10:33;;;;;;;18.17;13.33;;;9.30;99.90;;;;;;5096351;28;20196;-74
2023/02/05 00:13:00;;;;;;;18.83;13.33;;;9.20;99.90;;;;;;5096260;28;20664;-75
2023/02/05 00:15:27;;;;;;;18.27;13.00;;;9.20;99.90;;;;;;5096268;28;20205;-75
2023/02/05 00:17:54;;;;;;;18.77;12.93;;;9.20;99.90;;;;;;5096136;28;20660;-75
2023/02/05 00:20:21;;;;;;;18.23;13.17;;;9.10;99.90;;;;;;5095460;28;20212;-76
2023/02/05 00:22:47;;;;;;;20.10;13.13;;;9.30;99.90;;;;;;5096317;28;20209;-75
2023/02/05 00:25:15;;;;;;;16.57;11.83;;;9.30;99.90;;;;;;5096163;28;20193;-76
2023/02/05 00:27:43;;;;;;;17.13;11.80;;;9.20;99.90;;;;;;5096157;28;20236;-78
2023/02/05 00:30:11;;;;;;;16.40;11.97;;;9.40;99.90;;;;;;5096412;28;20189;-76
2023/02/05 00:32:37;;;;;;;19.33;12.33;;;9.30;99.90;;;;;;5096045;28;20604;-78
2023/02/05 00:35:05;;;;;;;17.70;12.63;;;9.30;99.90;;;;;;5095680;28;20555;-76
2023/02/05 00:37:31;;;;;;;17.33;11.10;;;9.30;99.90;;;;;;5095613;28;20703;-76
2023/02/05 00:39:58;;;;;;;16.60;11.37;;;9.30;99.90;;;;;;5096273;28;20212;-75
2023/02/05 00:42:25;;;;;;;17.93;10.73;;;9.20;99.90;;;;;;5095986;28;20212;-75
2023/02/05 00:44:53;;;;;;;17.77;11.97;;;9.10;99.90;;;;;;5095889;28;20205;-75
2023/02/05 00:47:20;;;;;;;14.63;11.70;;;9.10;99.90;;;;;;5095503;28;20213;-79
2023/02/05 00:49:47;;;;;;;13.20;11.00;;;9.10;99.90;;;;;;5095746;28;20229;-79
2023/02/05 00:52:14;;;;;;;14.30;10.57;;;9.30;99.90;;;;;;5095895;28;20186;-80
2023/02/05 00:54:41;;;;;;;16.70;10.90;;;9.30;99.90;;;;;;5096033;28;20212;-80
2023/02/05 00:57:08;;;;;;;14.43;10.43;;;9.30;99.90;;;;;;5095580;28;20562;-78
2023/02/05 00:59:35;;;;;;;13.80;10.10;;;9.30;99.90;;;;;;5095968;28;20196;-81
2023/02/05 01:02:03;;;;;;;14.17;10.40;;;9.40;99.90;;;;;;5094918;28;20195;-75
2023/02/05 01:04:30;;;;;;;12.30;9.88;;;9.30;99.90;;;;;;5095447;28;20482;-76
2023/02/05 01:06:56;;;;;;;12.53;9.83;;;9.10;99.90;;;;;;5096089;28;20224;-77
2023/02/05 01:09:23;;;;;;;13.90;9.80;;;9.00;99.90;;;;;;5095793;28;20240;-75
2023/02/05 01:11:50;;;;;;;15.37;9.07;;;8.80;99.90;;;;;;5095987;28;20208;-73
2023/02/05 01:14:17;;;;;;;11.27;8.77;;;8.80;99.90;;;;;;5096875;28;20193;-75
2023/02/05 01:16:44;;;;;;;9.37;7.83;;;8.80;99.90;;;;;;5096457;28;20201;-76
2023/02/05 01:19:12;;;;;;;10.10;7.90;;;8.80;99.90;;;;;;5097216;28;20212;-75
2023/02/05 01:21:38;;;;;;;10.87;7.50;;;8.80;99.90;;;;;;5096700;28;20212;-75
2023/02/05 01:24:06;;;;;;;10.37;7.33;;;8.80;99.90;;;;;;5096101;28;20212;-75
2023/02/05 01:26:35;;;;;;;12.73;7.20;;;8.80;99.90;;;;;;5096811;28;20197;-76
2023/02/05 01:29:02;;;;;;;11.50;7.17;;;8.90;99.90;;;;;;5097162;28;20232;-76
2023/02/05 01:31:29;;;;;;;8.00;6.60;;;8.80;99.90;;;;;;5096580;28;20204;-75
2023/02/05 01:33:56;;;;;;;11.07;6.87;;;8.80;99.90;;;;;;5097356;28;20254;-75
2023/02/05 01:36:25;;;;;;;10.40;6.77;;;8.70;99.90;;;;;;5096483;28;20696;-76
2023/02/05 01:38:53;;;;;;;9.17;6.80;;;8.70;99.90;;;;;;5096962;28;20205;-75
2023/02/05 01:41:20;;;;;;;9.07;6.30;;;8.60;99.90;;;;;;5097078;28;20190;-79
2023/02/05 01:44:06;;;;;;;9.50;5.90;;;8.60;99.90;;;;;;5097833;28;20280;-76
2023/02/05 01:46:35;;;;;;;7.33;5.77;;;8.70;99.90;;;;;;5096287;28;20212;-78
2023/02/05 01:49:04;;;;;;;6.87;5.90;;;8.60;99.90;;;;;;5095947;28;20706;-77
2023/02/05 01:51:35;;;;;;;8.23;5.90;;;8.50;99.90;;;;;;5095912;28;20204;-76
2023/02/05 01:54:02;;;;;;;7.40;5.37;;;8.60;99.90;;;;;;5094943;28;20590;-76
2023/02/05 01:56:33;;;;;;;5.70;5.07;;;8.60;99.90;;;;;;5095583;28;20545;-77
2023/02/05 01:59:05;;;;;;;6.17;4.87;;;8.70;99.90;;;;;;5096311;28;20189;-75
2023/02/05 02:01:33;;;;;;;5.93;5.00;;;8.70;99.90;;;;;;5096056;28;20272;-76
2023/02/05 02:04:03;;;;;;;7.17;4.60;;;8.70;99.90;;;;;;5094675;28;20205;-75
2023/02/05 02:06:32;;;;;;;5.53;4.47;;;8.80;99.90;;;;;;5095017;28;20250;-75
2023/02/05 02:08:59;;;;;;;8.87;4.93;;;8.70;99.90;;;;;;5094196;28;20273;-75
2023/02/05 02:11:29;;;;;;;7.13;4.83;;;8.70;99.90;;;;;;5094580;28;20554;-76
2023/02/05 02:13:58;;;;;;;6.80;4.40;;;8.70;99.90;;;;;;5094831;28;20213;-76
2023/02/05 02:16:26;;;;;;;4.50;4.07;;;8.70;99.90;;;;;;5095968;28;20197;-76
2023/02/05 02:18:54;;;;;;;4.50;4.00;;;8.40;99.90;;;;;;5094882;28;20197;-78
2023/02/05 02:21:49;;;;;;;7.43;4.50;;;8.50;99.90;;;;;;5095003;28;20211;-78
2023/02/05 02:24:33;;;;;;;5.90;4.70;;;8.60;99.90;;;;;;5095287;28;20194;-77
2023/02/05 02:27:14;;;;;;;5.30;4.13;;;8.60;99.90;;;;;;5094703;28;20192;-78
2023/02/05 02:29:48;;;;;;;7.80;4.10;;;8.70;99.90;;;;;;5094410;28;20217;-78
2023/02/05 02:32:20;;;;;;;6.00;4.03;;;8.70;99.90;;;;;;5094305;28;20212;-78
2023/02/05 02:34:49;;;;;;;6.07;3.77;;;8.70;99.90;;;;;;5094712;28;20205;-76
2023/02/05 02:37:23;;;;;;;7.00;4.30;;;8.70;99.90;;;;;;5094288;28;20225;-76
2023/02/05 02:39:58;;;;;;;5.27;3.87;;;8.60;99.90;;;;;;5093672;28;20205;-76
2023/02/05 02:42:33;;;;;;;6.87;4.10;;;8.60;99.90;;;;;;5080367;28;20201;-76
2023/02/05 02:45:05;;;;;;;5.20;3.63;;;8.60;99.90;;;;;;5080804;28;20250;-76
2023/02/05 02:47:38;;;;;;;7.03;3.83;;;8.60;99.90;;;;;;5094195;28;20660;-75
2023/02/05 02:50:09;;;;;;;4.90;3.83;;;8.60;99.90;;;;;;5093375;28;20229;-78
2023/02/05 02:52:39;;;;;;;4.83;3.57;;;8.50;99.90;;;;;;5094035;28;20202;-77
2023/02/05 02:55:10;;;;;;;5.63;4.80;;;8.50;99.90;;;;;;5081131;28;20432;-77
2023/02/05 02:57:41;;;;;;;4.23;3.87;;;8.70;99.90;;;;;;5092227;28;20209;-74
2023/02/05 03:00:14;;;;;;;5.07;3.90;;;8.70;99.90;;;;;;5093527;28;20197;-76
2023/02/05 03:02:43;;;;;;;5.20;3.73;;;8.70;99.90;;;;;;5093371;28;20584;-77
2023/02/05 03:05:15;;;;;;;4.97;3.80;;;8.60;99.90;;;;;;5093448;28;20198;-77
2023/02/05 03:07:45;;;;;;;6.23;4.13;;;8.40;99.90;;;;;;5094630;28;20197;-78
2023/02/05 03:10:20;;;;;;;8.07;3.53;;;8.50;99.90;;;;;;5093210;28;20700;-75
2023/02/05 03:12:47;;;;;;;5.03;4.30;;;8.50;99.90;;;;;;5094749;28;20196;-77
2023/02/05 03:15:15;;;;;;;5.63;4.40;;;8.50;99.90;;;;;;5094584;28;20208;-75
2023/02/05 03:17:43;;;;;;;5.33;3.83;;;8.50;99.90;;;;;;5094286;28;20197;-76
2023/02/05 03:20:16;;;;;;;7.17;3.90;;;8.40;99.90;;;;;;5094410;28;20208;-75
2023/02/05 03:22:42;;;;;;;5.13;4.57;;;8.40;99.90;;;;;;5094048;28;20196;-76
2023/02/05 03:25:11;;;;;;;5.10;4.17;;;8.20;99.90;;;;;;5092951;28;20201;-77
2023/02/05 03:27:38;;;;;;;5.97;4.27;;;8.30;99.90;;;;;;5092401;28;20205;-78
2023/02/05 03:30:08;;;;;;;6.57;4.13;;;8.30;99.90;;;;;;5094080;28;20244;-76
2023/02/05 03:32:48;;;;;;;5.73;4.13;;;8.40;99.90;;;;;;5095528;28;20198;-75
2023/02/05 03:35:25;;;;;;;10.33;5.07;;;8.40;99.90;;;;;;5094604;28;20606;-77
2023/02/05 03:38:07;;;;;;;9.67;4.80;;;8.40;99.90;;;;;;5093980;28;20207;-77
2023/02/05 03:40:42;;;;;;;7.47;5.40;;;8.30;99.90;;;;;;5094038;28;20213;-77
2023/02/05 03:43:23;;;;;;;7.13;5.20;;;8.20;99.90;;;;;;5081058;28;20207;-78
2023/02/05 03:45:58;;;;;;;9.37;5.43;;;8.10;99.90;;;;;;5091453;28;20247;-76
2023/02/05 03:48:47;;;;;;;8.33;5.33;;;8.20;99.90;;;;;;5085277;28;20204;-75
2023/02/05 03:51:23;;;;;;;10.45;7.32;;;8.20;99.90;;;;;;5091726;28;20414;-77
2023/02/05 03:54:02;;;;;;;9.97;5.73;;;8.40;99.90;;;;;;5080195;28;20283;-75
2023/02/05 03:56:35;;;;;;;8.50;5.70;;;8.50;99.90;;;;;;5092765;28;20200;-76
2023/02/05 03:59:04;;;;;;;9.77;6.37;;;8.50;99.90;;;;;;5094112;28;20656;-77
2023/02/05 04:01:33;;;;;;;8.83;6.23;;;8.60;99.90;;;;;;5094566;28;20564;-78
2023/02/05 04:04:01;;;;;;;8.90;5.77;;;8.50;99.90;;;;;;5093008;28;20208;-76
2023/02/05 04:06:28;;;;;;;7.70;5.77;;;8.50;99.90;;;;;;5093103;28;20197;-75
2023/02/05 04:08:54;;;;;;;10.37;6.60;;;8.50;99.90;;;;;;5092915;28;20229;-75
2023/02/05 04:11:21;;;;;;;7.63;6.10;;;8.50;99.90;;;;;;5092732;28;20223;-75
2023/02/05 04:13:48;;;;;;;8.03;6.67;;;8.50;99.90;;;;;;5093753;28;20205;-76
2023/02/05 04:16:15;;;;;;;9.93;7.13;;;8.50;99.90;;;;;;5094658;28;20194;-75
2023/02/05 04:18:41;;;;;;;12.32;8.50;;;8.50;99.90;;;;;;5093433;28;20434;-76
2023/02/05 04:21:12;;;;;;;9.83;7.30;;;8.60;99.90;;;;;;5095108;28;20575;-75
2023/02/05 04:23:39;;;;;;;8.73;6.83;;;8.70;99.90;;;;;;5093972;28;20664;-75
2023/02/05 04:26:05;;;;;;;13.50;6.73;;;8.60;99.90;;;;;;5092678;28;20193;-75
2023/02/05 04:28:33;;;;;;;8.87;6.90;;;8.50;99.90;;;;;;5087237;28;20672;-76
2023/02/05 04:30:59;;;;;;;12.30;6.77;;;8.40;99.90;;;;;;5086686;28;20205;-76
2023/02/05 04:33:26;;;;;;;11.90;8.10;;;8.40;99.90;;;;;;5086276;28;20561;-74
2023/02/05 04:35:58;;;;;;;14.37;8.30;;;8.30;99.90;;;;;;5087708;28;20709;-76
2023/02/05 04:38:27;;;;;;;12.60;9.40;;;8.00;99.90;;;;;;5090502;28;20202;-75
2023/02/05 04:40:54;;;;;;;11.63;8.93;;;8.00;99.90;;;;;;5093055;28;20825;-75
2023/02/05 04:43:22;;;;;;;14.40;9.07;;;7.90;99.90;;;;;;5097019;28;20204;-76
2023/02/05 04:45:49;;;;;;;13.60;10.47;;;7.90;99.90;;;;;;5096146;28;20224;-77
2023/02/05 04:48:16;;;;;;;12.20;9.27;;;7.70;99.90;;;;;;5077659;28;20664;-74
2023/02/05 04:50:43;;;;;;;16.20;10.53;;;7.70;99.90;;;;;;5090380;28;20225;-74
2023/02/05 04:53:10;;;;;;;16.37;11.33;;;7.60;99.90;;;;;;5098180;28;20568;-76
2023/02/05 04:55:38;;;;;;;16.50;11.27;;;7.50;99.90;;;;;;5097935;28;20204;-77
2023/02/05 04:58:06;;;;;;;16.03;12.07;;;7.50;99.90;;;;;;5100243;28;20208;-75
2023/02/05 05:00:35;;;;;;;15.70;12.07;;;7.50;99.90;;;;;;5098708;28;20208;-76
2023/02/05 05:03:03;;;;;;;19.57;12.73;;;7.50;99.90;;;;;;5098612;28;20254;-75
2023/02/05 05:05:30;;;;;;;17.70;13.43;;;7.50;99.90;;;;;;5098514;28;20202;-76
2023/02/05 05:07:58;;;;;;;18.23;14.00;;;7.40;99.90;;;;;;5097054;28;20223;-75
2023/02/05 05:10:25;;;;;;;22.03;13.90;;;7.40;99.90;;;;;;5096764;28;20213;-74
2023/02/05 05:12:55;;;;;;;18.40;13.50;;;7.50;99.90;;;;;;5097261;28;20568;-78
2023/02/05 05:15:26;;;;;;;19.50;14.80;;;7.50;99.90;;;;;;5097216;28;20204;-77
2023/02/05 05:17:52;;;;;;;23.17;14.57;;;7.60;99.90;;;;;;5096834;28;20189;-75
2023/02/05 05:20:19;;;;;;;24.27;15.10;;;7.50;99.90;;;;;;5095946;28;20652;-75
2023/02/05 05:22:47;;;;;;;25.00;16.50;;;7.60;99.90;;;;;;5094686;28;20220;-77
2023/02/05 05:25:14;;;;;;;23.03;16.13;;;7.50;99.90;;;;;;5096343;28;20213;-74
2023/02/05 05:27:41;;;;;;;18.73;15.17;;;7.60;99.90;;;;;;5091479;28;20294;-75
2023/02/05 05:30:13;;;;;;;21.37;15.90;;;7.50;99.90;;;;;;5088002;28;20577;-75
2023/02/05 05:32:40;;;;;;;23.07;16.20;;;7.50;99.90;;;;;;5096889;28;20190;-76
2023/02/05 05:35:07;;;;;;;24.70;17.10;;;7.50;99.90;;;;;;5095835;28;20208;-73
2023/02/05 05:37:34;;;;;;;21.57;16.80;;;7.60;99.90;;;;;;5094989;28;20213;-74
2023/02/05 05:45:31;;;;;;;21.63;17.23;;;7.60;99.90;;;;;;5085588;28;20688;-77
2023/02/05 05:47:58;;;;;;;24.47;17.07;;;7.50;99.90;;;;;;5089792;28;20201;-74
2023/02/05 05:50:25;;;;;;;20.27;15.90;;;7.50;99.90;;;;;;5087239;28;20274;-76
2023/02/05 05:52:51;;;;;;;20.70;15.47;;;7.60;99.90;;;;;;5086340;28;20201;-78
2023/02/05 05:55:18;;;;;;;21.97;16.27;;;7.60;99.90;;;;;;5086241;28;20202;-74
2023/02/05 05:57:45;;;;;;;21.33;16.37;;;7.60;99.90;;;;;;5095224;28;20193;-73
2023/02/05 06:00:13;;;;;;;19.43;16.20;;;7.50;99.90;;;;;;5095724;28;20201;-74
2023/02/05 06:02:43;;;;;;;23.80;17.13;;;7.60;99.90;;;;;;5095419;28;20235;-75
2023/02/05 06:05:10;;;;;;;16.93;15.23;;;7.60;99.90;;;;;;5095956;28;20201;-74
2023/02/05 06:07:37;;;;;;;16.17;13.13;;;7.70;99.90;;;;;;5096223;28;20205;-74
2023/02/05 06:10:06;;;;;;;15.00;13.20;;;7.80;99.90;;;;;;5095331;28;20231;-74
2023/02/05 06:12:33;;;;;;;14.00;11.40;;;7.70;99.90;;;;;;5096870;28;20652;-75
2023/02/05 06:14:59;;;;;;;11.97;7.10;;;7.70;99.90;;;;;;5095458;28;20219;-74
2023/02/05 06:17:27;;;;;;;5.40;4.57;;;7.70;99.90;;;;;;5095361;28;20207;-74
2023/02/05 06:19:55;;;;;;;8.00;4.10;;;7.60;99.90;;;;;;5095247;28;20270;-75
2023/02/05 06:22:22;;;;;;;5.23;3.37;;;7.60;99.90;;;;;;5094572;28;20233;-75
2023/02/05 06:24:49;;;;;;;11.60;4.33;;;7.60;99.90;;;;;;5081248;28;20203;-74
2023/02/05 06:27:16;;;;;;;5.83;2.50;;;7.60;99.90;;;;;;5095849;28;20504;-74
2023/02/05 06:29:42;;;;;;;9.17;1.70;;;7.60;99.90;;;;;;5096334;28;20243;-74
2023/02/05 06:32:09;;;;;;;4.80;2.00;;;7.60;99.90;;;;;;5095694;28;20220;-76
2023/02/05 06:34:36;;;;;;;11.40;2.13;;;7.50;99.90;;;;;;5096487;28;20212;-74
2023/02/05 06:37:04;;;;;;;14.63;2.20;;;7.50;99.90;;;;;;5096186;28;20626;-74
2023/02/05 06:39:31;;;;;;;11.27;2.50;;;7.50;99.90;;;;;;5095015;28;20212;-74
2023/02/05 06:41:58;;;;;;;12.00;2.43;;;7.40;99.90;;;;;;5095951;28;20540;-73
2023/02/05 06:44:25;;;;;;;7.73;1.60;;;7.40;99.90;;;;;;5094645;28;20201;-74
2023/02/05 06:46:51;;;;;;;10.03;1.80;;;7.40;99.90;;;;;;5093716;28;20197;-72
2023/02/05 06:49:18;;;;;;;7.83;2.20;;;7.30;99.90;;;;;;5096096;28;20283;-73
2023/02/05 06:51:45;;;;;;;12.77;2.90;;;7.20;99.90;;;;;;5091737;28;20204;-73
2023/02/05 06:54:13;;;;;;;10.10;1.73;;;7.20;99.90;;;;;;5088475;28;20573;-74
2023/02/05 06:56:40;;;;;;;10.97;2.27;;;7.20;99.90;;;;;;5089441;28;20640;-73
2023/02/05 06:59:07;;;;;;;11.07;2.03;;;7.10;99.90;;;;;;5084566;28;20197;-75
2023/02/05 07:01:34;;;;;;;8.10;1.50;;;7.10;99.90;;;;;;5091616;28;20208;-73
2023/02/05 07:04:00;;;;;;;6.77;1.40;;;7.00;99.90;;;;;;5093839;28;20652;-73
2023/02/05 07:06:27;;;;;;;7.50;1.70;;;6.90;99.90;;;;;;5094000;28;20617;-73
2023/02/05 07:08:54;;;;;;;8.07;1.90;;;7.00;99.90;;;;;;5093664;28;20223;-74
2023/02/05 07:11:23;;;;;;;14.37;2.13;;;6.80;99.90;;;;;;5091146;28;20224;-74
2023/02/05 07:13:50;;;;;;;9.10;1.57;;;6.90;99.90;;;;;;5094763;28;20197;-74
2023/02/05 07:16:16;;;;;;;12.50;1.70;;;6.90;99.90;;;;;;5093752;28;20224;-74
2023/02/05 07:18:43;;;;;;;5.10;1.30;;;7.00;99.90;;;;;;5093925;28;20201;-75
2023/02/05 07:21:14;;;;;;;15.73;1.90;;;6.90;99.90;;;;;;5094083;28;20212;-74
2023/02/05 07:23:42;;;;;;;9.17;1.57;;;6.90;99.90;;;;;;5093537;28;20667;-74
2023/02/05 07:26:10;;;;;;;10.00;2.43;;;6.90;99.90;;;;;;5094970;28;20204;-75
2023/02/05 07:28:40;;;;;;;12.83;2.37;;;7.00;99.90;;;;;;5095788;28;20200;-75
2023/02/05 07:31:08;;;;;;;7.40;1.50;;;7.00;99.90;;;;;;5095086;28;20229;-75
2023/02/05 07:33:36;;;;;;;8.63;1.90;;;7.00;99.90;;;;;;5088572;28;20198;-73
2023/02/05 07:36:04;;;;;;;11.93;1.93;;;7.00;99.90;;;;;;5073652;28;20218;-74
2023/02/05 07:38:33;;;;;;;11.32;2.17;;;7.00;99.90;;;;;;5073232;28;20428;-75
2023/02/05 07:41:03;;;;;;;4.63;1.83;;;7.10;99.90;;;;;;5078876;28;20206;-74
2023/02/05 07:43:31;;;;;;;7.87;1.60;;;7.00;99.90;;;;;;5090143;28;20200;-74
2023/02/05 07:46:00;;;;;;;13.57;2.33;;;7.10;99.90;;;;;;5093697;28;20207;-73
2023/02/05 07:48:27;;;;;;;6.40;1.83;;;7.10;99.90;;;;;;5092955;28;20234;-74
2023/02/05 07:50:54;;;;;;;6.43;1.47;;;7.10;99.90;;;;;;5095362;28;20228;-73
2023/02/05 07:53:21;;;;;;;9.70;2.10;;;7.20;99.90;;;;;;5095887;28;20309;-74
2023/02/05 07:55:49;;;;;;;15.20;2.50;;;7.20;99.90;;;;;;5096649;28;20205;-74
2023/02/05 07:58:16;;;;;;;14.20;2.27;;;7.30;99.90;;;;;;5098266;28;20223;-74
2023/02/05 08:00:43;;;;;;;10.53;1.97;;;7.20;99.90;;;;;;5098704;28;20204;-73
2023/02/05 08:03:12;;;;;;;11.67;2.50;;;7.30;99.90;;;;;;5094653;28;20209;-73
2023/02/05 08:05:40;;;;;;;11.53;1.80;;;7.40;99.90;;;;;;5096453;28;20207;-72
2023/02/05 08:08:07;;;;;;;19.30;3.17;;;7.30;99.90;;;;;;5095512;28;20663;-76
2023/02/05 08:10:34;;;;;;;16.10;2.93;;;7.30;99.90;;;;;;5095977;28;20224;-73
2023/02/05 08:13:00;;;;;;;12.77;2.87;;;7.40;99.90;;;;;;5090037;28;20205;-75
2023/02/05 08:15:27;;;;;;;11.33;2.80;;;7.50;99.90;;;;;;5091978;28;20193;-75
2023/02/05 08:17:54;;;;;;;12.27;2.03;;;7.40;99.90;;;;;;5098378;28;20609;-76
2023/02/05 08:20:22;;;;;;;10.30;2.53;;;7.50;99.90;;;;;;5098953;28;20212;-75
2023/02/05 08:22:49;;;;;;;14.23;2.60;;;7.50;99.90;;;;;;5096242;28;20202;-76
2023/02/05 08:25:16;;;;;;;16.00;2.40;;;7.50;99.90;;;;;;5096976;28;20197;-76
2023/02/05 08:27:44;;;;;;;15.33;3.20;;;7.50;99.90;;;;;;5097110;28;20201;-78
2023/02/05 08:30:16;;;;;;;14.17;2.60;;;7.50;99.90;;;;;;5096960;28;20253;-75
2023/02/05 08:32:46;;;;;;;11.83;2.57;;;7.50;99.90;;;;;;5096735;28;20213;-75
2023/02/05 08:35:13;;;;;;;13.30;2.60;;;7.50;99.90;;;;;;5093957;28;20205;-76
2023/02/05 08:37:41;;;;;;;13.27;3.07;;;7.50;99.90;;;;;;5096743;28;20563;-75
2023/02/05 08:40:12;;;;;;;10.60;2.10;;;7.50;99.90;;;;;;5094323;28;20209;-77
2023/02/05 08:42:38;;;;;;;19.57;2.90;;;7.60;99.90;;;;;;5094804;28;20284;-77
2023/02/05 08:45:07;;;;;;;20.10;3.07;;;7.50;99.90;;;;;;5095929;28;20515;-81
2023/02/05 08:47:34;;;;;;;18.70;2.83;;;7.50;99.90;;;;;;5095878;28;20201;-84
2023/02/05 08:50:01;;;;;;;24.30;3.07;;;7.50;99.90;;;;;;5096039;28;20201;-83
2023/02/05 08:52:28;;;;;;;16.60;3.33;;;7.50;99.90;;;;;;5082815;28;20284;-88
2023/02/05 08:54:56;;;;;;;15.23;3.33;;;7.50;99.90;;;;;;5096613;28;20566;-82
2023/02/05 08:57:27;;;;;;;17.37;2.97;;;7.50;99.90;;;;;;5092388;28;20198;-85
2023/02/05 08:59:54;;;;;;;16.57;3.30;;;7.50;99.90;;;;;;5089103;28;20635;-83
2023/02/05 09:02:20;;;;;;;18.73;3.40;;;7.50;99.90;;;;;;5097140;28;20208;-85
2023/02/05 09:04:47;;;;;;;14.77;3.77;;;7.60;99.90;;;;;;5096395;28;20584;-84
2023/02/05 09:07:14;;;;;;;14.77;3.27;;;7.50;99.90;;;;;;5097161;28;20196;-89
2023/02/05 09:09:41;;;;;;;16.73;3.30;;;7.60;99.90;;;;;;5088033;28;20216;-86
2023/02/05 09:12:10;;;;;;;13.13;3.10;;;7.60;99.90;;;;;;5102840;28;20228;-83
2023/02/05 09:14:38;;;;;;;12.33;3.17;;;7.70;99.90;;;;;;5101028;28;20202;-83
2023/02/05 09:17:05;;;;;;;17.50;3.70;;;7.60;99.90;;;;;;5112076;28;20204;-88
2023/02/05 09:19:34;;;;;;;10.70;2.70;;;7.50;99.90;;;;;;5111223;28;20217;-82
2023/02/05 09:22:01;;;;;;;18.50;3.70;;;7.60;99.90;;;;;;5097680;28;20682;-81
2023/02/05 09:24:28;;;;;;;17.23;3.50;;;7.70;99.90;;;;;;5090103;28;20205;-82
2023/02/05 09:26:54;;;;;;;16.40;3.30;;;7.70;99.90;;;;;;5095473;28;20238;-83
2023/02/05 09:29:23;;;;;;;16.13;3.40;;;7.60;99.90;;;;;;5087735;28;20221;-83
2023/02/05 09:31:49;;;;;;;15.83;3.50;;;7.80;99.90;;;;;;5089648;28;20332;-84
2023/02/05 09:34:16;;;;;;;23.20;3.63;;;7.70;99.90;;;;;;5095896;28;20197;-81
2023/02/05 09:36:43;;;;;;;21.90;4.70;;;7.70;99.90;;;;;;5080885;28;20420;-88
2023/02/05 09:39:10;;;;;;;20.23;3.87;;;7.70;99.90;;;;;;5091030;28;20198;-90
2023/02/05 09:41:44;;;;;;;22.13;3.87;;;7.80;99.90;;;;;;5079531;28;20193;-83
2023/02/05 09:44:18;;;;;;;20.80;4.07;;;7.70;99.90;;;;;;5082715;28;20229;-84
2023/02/05 09:46:56;;;;;;;19.13;4.40;;;7.60;99.90;;;;;;5084647;28;20205;-89
2023/02/05 09:49:28;;;;;;;17.33;3.17;;;7.70;99.90;;;;;;5081122;28;20205;-87
2023/02/05 09:51:59;;;;;;;13.23;3.50;;;7.70;99.90;;;;;;5082923;28;20225;-88
2023/02/05 09:54:29;;;;;;;17.53;3.50;;;7.80;99.90;;;;;;5091830;28;20198;-91
2023/02/05 09:57:02;;;;;;;18.53;3.83;;;7.70;99.90;;;;;;5095689;28;20658;-86
2023/02/05 09:59:30;;;;;;;27.37;4.40;;;7.70;99.90;;;;;;5084119;28;20255;-88
2023/02/05 10:02:02;;;;;;;21.83;4.73;;;7.80;99.90;;;;;;5096017;28;20212;-90
2023/02/05 10:04:30;;;;;;;26.92;5.50;;;7.80;99.90;;;;;;5093446;28;20422;-89
2023/02/05 10:07:17;;;;;;;25.07;4.33;;;7.90;99.90;;;;;;5097700;28;20197;-89
2023/02/05 10:10:07;;;;;;;21.13;4.77;;;7.90;99.90;;;;;;5093478;28;20197;-90
2023/02/05 10:12:43;;;;;;;20.33;4.20;;;8.10;99.90;;;;;;5085249;28;20271;-91
2023/02/05 10:15:29;;;;;;;22.80;4.07;;;8.00;99.90;;;;;;5096900;28;20212;-84
2023/02/05 10:18:08;;;;;;;25.03;4.20;;;8.00;99.90;;;;;;5090662;28;20217;-86
2023/02/05 10:20:51;;;;;;;24.37;3.93;;;8.20;99.90;;;;;;5081192;28;20260;-87
2023/02/05 10:23:28;;;;;;;16.73;3.63;;;8.10;99.90;;;;;;5087619;28;20194;-86
2023/02/05 10:26:04;;;;;;;15.60;3.93;;;8.00;99.90;;;;;;5099770;28;20204;-87
2023/02/05 10:29:06;;;;;;;27.13;4.73;;;8.10;99.90;;;;;;5097145;28;20203;-85
2023/02/05 10:31:41;;;;;;;21.57;5.07;;;8.10;99.90;;;;;;5091636;28;20217;-87
2023/02/05 10:34:18;;;;;;;20.43;3.70;;;8.10;99.90;;;;;;5075935;28;20201;-87
2023/02/05 10:36:49;;;;;;;15.63;2.90;;;8.10;99.90;;;;;;5089226;28;20217;-87
2023/02/05 10:39:19;;;;;;;20.87;4.27;;;8.00;99.90;;;;;;5088380;28;20572;-83
2023/02/05 10:41:51;;;;;;;26.67;4.50;;;8.10;99.90;;;;;;5085235;28;20205;-86
2023/02/05 10:44:24;;;;;;;15.30;3.67;;;8.20;99.90;;;;;;5097583;28;20205;-85
2023/02/05 10:46:57;;;;;;;19.27;4.37;;;8.20;99.90;;;;;;5085452;28;20205;-83
2023/02/05 10:49:31;;;;;;;16.37;3.57;;;8.10;99.90;;;;;;5090278;28;20230;-85
2023/02/05 10:51:58;;;;;;;17.40;3.57;;;8.20;99.90;;;;;;5092322;28;20587;-87
2023/02/05 10:54:28;;;;;;;17.07;3.17;;;8.20;99.90;;;;;;5097577;28;20211;-88
2023/02/05 10:56:58;;;;;;;20.90;4.10;;;8.30;99.90;;;;;;5098889;28;20205;-88
2023/02/05 10:59:29;;;;;;;16.67;3.70;;;8.40;99.90;;;;;;5091785;28;20190;-86
2023/02/05 11:02:01;;;;;;;21.23;4.03;;;8.40;99.90;;;;;;5090265;28;20205;-88
2023/02/05 11:04:36;;;;;;;14.37;4.20;;;8.20;99.90;;;;;;5088183;28;20202;-86
2023/02/05 11:07:05;;;;;;;13.97;3.50;;;8.30;99.90;;;;;;5091683;28;20204;-86
2023/02/05 11:09:35;;;;;;;17.17;3.43;;;8.30;99.90;;;;;;5094952;28;20731;-85
2023/02/05 11:12:05;;;;;;;21.00;4.27;;;8.30;99.90;;;;;;5092920;28;20240;-88
2023/02/05 11:14:35;;;;;;;16.80;4.20;;;8.50;99.90;;;;;;5097130;28;20276;-88
2023/02/05 11:17:21;;;;;;;19.97;3.50;;;8.60;99.90;;;;;;5097562;28;20200;-88
2023/02/05 11:19:54;;;;;;;26.13;4.40;;;8.60;99.90;;;;;;5085352;28;20201;-90
2023/02/05 11:22:27;;;;;;;16.80;4.00;;;8.60;99.90;;;;;;5096386;28;20660;-87
2023/02/05 11:25:06;;;;;;;18.73;3.70;;;8.60;99.90;;;;;;5077580;28;20204;-90
2023/02/05 11:27:35;;;;;;;19.37;4.20;;;8.60;99.90;;;;;;5078641;28;20209;-88
2023/02/05 11:30:19;;;;;;;23.10;4.23;;;8.70;99.90;;;;;;5086059;28;20201;-89
2023/02/05 11:32:46;;;;;;;19.33;4.00;;;8.80;99.90;;;;;;5098435;28;20225;-91
2023/02/05 11:35:21;;;;;;;23.70;4.50;;;8.80;99.90;;;;;;5100227;28;20216;-88
2023/02/05 11:38:07;;;;;;;18.87;3.33;;;8.90;99.90;;;;;;5085667;28;20200;-89
2023/02/05 11:40:37;;;;;;;19.97;3.57;;;9.10;99.90;;;;;;5085941;28;20672;-87
2023/02/05 11:43:16;;;;;;;19.50;3.50;;;8.80;99.90;;;;;;5089482;28;20339;-87
2023/02/05 11:45:50;;;;;;;16.53;3.60;;;8.70;99.90;;;;;;5096215;28;20217;-87
2023/02/05 11:48:32;;;;;;;22.27;4.07;;;8.70;99.90;;;;;;5104949;28;20212;-91
2023/02/05 11:51:05;;;;;;;21.13;4.00;;;8.70;99.90;;;;;;5094844;28;20211;-89
2023/02/05 11:53:34;;;;;;;21.87;3.90;;;8.80;99.90;;;;;;5107284;28;20200;-89
2023/02/05 11:56:07;;;;;;;20.73;3.33;;;8.80;99.90;;;;;;5106433;28;20217;-88
2023/02/05 11:58:34;;;;;;;15.57;3.67;;;8.90;99.90;;;;;;5107001;28;20201;-89
2023/02/05 12:01:04;;;;;;;22.57;4.77;;;8.80;99.90;;;;;;5108918;28;20272;-88
2023/02/05 12:03:37;;;;;;;19.37;4.87;;;8.90;99.90;;;;;;5109114;28;20201;-87
2023/02/05 12:06:21;;;;;;;16.67;3.87;;;8.90;99.90;;;;;;5099028;28;20200;-88
2023/02/05 12:08:57;;;;;;;18.17;3.40;;;8.80;99.90;;;;;;5088459;28;20213;-91
2023/02/05 12:14:28;;;;;;;23.13;4.50;;;8.80;99.90;;;;;;5094647;28;20239;-87
2023/02/05 12:17:01;;;;;;;19.43;3.30;;;8.90;99.90;;;;;;5104151;28;20197;-87
2023/02/05 12:19:36;;;;;;;19.57;3.87;;;9.00;99.90;;;;;;5107889;28;20197;-88
2023/02/05 12:22:16;;;;;;;22.37;4.13;;;8.90;99.90;;;;;;5093430;28;20214;-88
2023/02/05 12:25:06;;;;;;;16.93;3.63;;;8.80;99.90;;;;;;5104222;28;20205;-87
2023/02/05 12:27:48;;;;;;;17.00;3.97;;;8.80;99.90;;;;;;5099099;28;20640;-91
2023/02/05 12:30:50;;;;;;;18.60;4.82;;;8.80;99.90;;;;;;5091190;28;20426;-90
2023/02/05 12:33:38;;;;;;;18.77;4.13;;;8.90;99.90;;;;;;5063140;28;20240;-91
2023/02/05 12:36:17;;;;;;;21.20;3.67;;;9.10;99.90;;;;;;5100697;28;20319;-89
2023/02/05 12:39:02;;;;;;;13.40;3.07;;;9.20;99.90;;;;;;5093653;28;20204;-84
2023/02/05 12:41:42;;;;;;;17.00;3.97;;;9.00;99.90;;;;;;5092889;28;20193;-85
2023/02/05 12:44:29;;;;;;;10.63;3.07;;;8.80;99.90;;;;;;5084970;28;20206;-92
2023/02/05 12:47:28;;;;;;;16.70;3.90;;;8.70;99.90;;;;;;5101379;28;20214;-94
2023/02/05 12:50:13;;;;;;;17.70;3.80;;;8.50;99.90;;;;;;5087180;28;20217;-93
2023/02/05 12:53:00;;;;;;;14.53;3.20;;;8.80;99.90;;;;;;5110737;28;20247;-93
2023/02/05 12:55:48;;;;;;;17.07;3.03;;;9.00;99.90;;;;;;5108616;28;20205;-94
2023/02/05 12:58:18;;;;;;;19.57;4.00;;;9.00;99.90;;;;;;5107019;28;20269;-91
2023/02/05 13:00:51;;;;;;;19.83;4.03;;;9.10;99.90;;;;;;5090290;28;20212;-90
2023/02/05 13:03:27;;;;;;;11.47;3.13;;;8.80;99.90;;;;;;5090848;28;20263;-89
2023/02/05 13:06:00;;;;;;;15.47;3.73;;;8.90;99.90;;;;;;5092186;28;20193;-90
2023/02/05 13:08:39;;;;;;;18.77;4.13;;;8.80;99.90;;;;;;5098638;28;20218;-88
2023/02/05 13:11:17;;;;;;;17.97;3.70;;;8.80;99.90;;;;;;5096932;28;20268;-88
2023/02/05 13:13:53;;;;;;;16.77;3.73;;;8.90;99.90;;;;;;5097168;28;20652;-90